sensor_id;sensor_type;location;lat;lon;timestamp;pressure;altitude;pressure_sealevel;temperature;humidity
64683;BME280;51107;47.652;19.016;2023-03-12T00:01:22;99314.06;;;1.12;62.59
64683;BME280;51107;47.652;19.016;2023-03-12T00:03:52;99319.00;;;1.15;61.83
64683;BME280;51107;47.652;19.016;2023-03-12T00:06:21;99315.50;;;1.16;61.31
64683;BME280;51107;47.652;19.016;2023-03-12T00:08:49;99322.06;;;1.20;61.28
64683;BME280;51107;47.652;19.016;2023-03-12T00:11:19;99319.91;;;1.14;61.68
64683;BME280;51107;47.652;19.016;2023-03-12T00:13:52;99320.59;;;1.03;62.77
64683;BME280;51107;47.652;19.016;2023-03-12T00:16:21;99325.13;;;0.99;63.13
64683;BME280;51107;47.652;19.016;2023-03-12T00:18:52;99344.38;;;1.32;60.47
64683;BME280;51107;47.652;19.016;2023-03-12T00:21:21;99335.94;;;1.17;59.75
64683;BME280;51107;47.652;19.016;2023-03-12T00:23:50;99340.22;;;1.17;60.34
64683;BME280;51107;47.652;19.016;2023-03-12T00:26:19;99338.69;;;1.14;59.80
64683;BME280;51107;47.652;19.016;2023-03-12T00:28:49;99342.88;;;1.15;60.65
64683;BME280;51107;47.652;19.016;2023-03-12T00:31:21;99350.16;;;1.09;60.94
64683;BME280;51107;47.652;19.016;2023-03-12T00:33:49;99334.44;;;1.00;60.04
64683;BME280;51107;47.652;19.016;2023-03-12T00:36:19;99349.19;;;1.24;60.80
64683;BME280;51107;47.652;19.016;2023-03-12T00:38:49;99345.59;;;1.27;59.10
64683;BME280;51107;47.652;19.016;2023-03-12T00:41:18;99363.00;;;1.09;59.62
64683;BME280;51107;47.652;19.016;2023-03-12T00:43:48;99355.16;;;0.84;60.52
64683;BME280;51107;47.652;19.016;2023-03-12T00:46:18;99367.72;;;1.15;59.14
64683;BME280;51107;47.652;19.016;2023-03-12T00:48:46;99355.59;;;1.04;60.80
64683;BME280;51107;47.652;19.016;2023-03-12T00:51:15;99371.81;;;1.05;60.05
64683;BME280;51107;47.652;19.016;2023-03-12T00:53:43;99368.06;;;1.23;59.60
64683;BME280;51107;47.652;19.016;2023-03-12T00:56:12;99392.06;;;1.22;59.04
64683;BME280;51107;47.652;19.016;2023-03-12T00:58:40;99382.22;;;1.42;57.67
64683;BME280;51107;47.652;19.016;2023-03-12T01:01:10;99383.16;;;1.41;56.90
64683;BME280;51107;47.652;19.016;2023-03-12T01:03:38;99377.41;;;1.50;55.95
64683;BME280;51107;47.652;19.016;2023-03-12T01:06:07;99367.25;;;1.23;57.41
64683;BME280;51107;47.652;19.016;2023-03-12T01:08:36;99375.53;;;1.39;55.94
64683;BME280;51107;47.652;19.016;2023-03-12T01:11:04;99376.56;;;1.24;56.30
64683;BME280;51107;47.652;19.016;2023-03-12T01:13:32;99371.53;;;1.22;56.57
64683;BME280;51107;47.652;19.016;2023-03-12T01:16:01;99368.75;;;1.12;57.04
64683;BME280;51107;47.652;19.016;2023-03-12T01:18:30;99367.00;;;1.13;57.24
64683;BME280;51107;47.652;19.016;2023-03-12T01:20:58;99363.25;;;1.18;56.31
64683;BME280;51107;47.652;19.016;2023-03-12T01:23:27;99359.81;;;1.05;57.14
64683;BME280;51107;47.652;19.016;2023-03-12T01:25:55;99357.84;;;1.09;56.25
64683;BME280;51107;47.652;19.016;2023-03-12T01:28:24;99364.03;;;1.06;57.00
64683;BME280;51107;47.652;19.016;2023-03-12T01:30:53;99355.63;;;1.17;56.24
64683;BME280;51107;47.652;19.016;2023-03-12T01:33:22;99365.06;;;1.04;56.88
64683;BME280;51107;47.652;19.016;2023-03-12T01:35:50;99364.03;;;1.06;56.15
64683;BME280;51107;47.652;19.016;2023-03-12T01:38:19;99364.09;;;1.05;57.12
64683;BME280;51107;47.652;19.016;2023-03-12T01:40:47;99356.81;;;0.98;57.92
64683;BME280;51107;47.652;19.016;2023-03-12T01:43:23;99365.50;;;0.83;58.16
64683;BME280;51107;47.652;19.016;2023-03-12T01:49:30;99383.91;;;0.90;58.30
64683;BME280;51107;47.652;19.016;2023-03-12T01:52:10;99391.44;;;0.78;59.72
64683;BME280;51107;47.652;19.016;2023-03-12T01:54:52;99393.09;;;0.79;59.51
64683;BME280;51107;47.652;19.016;2023-03-12T01:57:44;99397.63;;;0.89;58.55
64683;BME280;51107;47.652;19.016;2023-03-12T02:00:26;99408.44;;;0.52;59.89
64683;BME280;51107;47.652;19.016;2023-03-12T02:03:00;99413.63;;;0.38;61.08
64683;BME280;51107;47.652;19.016;2023-03-12T02:08:27;99418.94;;;0.35;62.94
64683;BME280;51107;47.652;19.016;2023-03-12T02:10:55;99425.81;;;0.20;63.85
64683;BME280;51107;47.652;19.016;2023-03-12T02:13:24;99420.41;;;0.39;63.48
64683;BME280;51107;47.652;19.016;2023-03-12T02:15:53;99434.88;;;0.25;64.06
64683;BME280;51107;47.652;19.016;2023-03-12T02:18:21;99429.56;;;0.28;64.64
64683;BME280;51107;47.652;19.016;2023-03-12T02:21:06;99424.25;;;0.03;65.76
64683;BME280;51107;47.652;19.016;2023-03-12T02:23:46;99435.22;;;0.19;66.38
64683;BME280;51107;47.652;19.016;2023-03-12T02:26:18;99437.03;;;0.31;66.25
64683;BME280;51107;47.652;19.016;2023-03-12T02:28:49;99441.19;;;0.20;66.15
64683;BME280;51107;47.652;19.016;2023-03-12T02:31:22;99446.78;;;0.26;66.29
64683;BME280;51107;47.652;19.016;2023-03-12T02:33:52;99457.44;;;0.04;66.01
64683;BME280;51107;47.652;19.016;2023-03-12T02:36:22;99457.47;;;-0.10;67.09
64683;BME280;51107;47.652;19.016;2023-03-12T02:38:52;99469.38;;;0.20;66.50
64683;BME280;51107;47.652;19.016;2023-03-12T02:41:29;99478.25;;;0.14;67.23
64683;BME280;51107;47.652;19.016;2023-03-12T02:46:45;99483.19;;;0.17;67.50
64683;BME280;51107;47.652;19.016;2023-03-12T02:49:16;99478.22;;;0.28;66.48
64683;BME280;51107;47.652;19.016;2023-03-12T02:51:45;99483.72;;;0.51;65.45
64683;BME280;51107;47.652;19.016;2023-03-12T02:54:15;99489.94;;;0.47;65.92
64683;BME280;51107;47.652;19.016;2023-03-12T02:56:44;99492.22;;;0.37;65.70
64683;BME280;51107;47.652;19.016;2023-03-12T02:59:14;99479.31;;;0.24;66.23
64683;BME280;51107;47.652;19.016;2023-03-12T03:01:43;99475.94;;;0.38;65.91
64683;BME280;51107;47.652;19.016;2023-03-12T03:04:12;99489.84;;;0.34;65.68
64683;BME280;51107;47.652;19.016;2023-03-12T03:06:41;99481.34;;;0.19;65.31
64683;BME280;51107;47.652;19.016;2023-03-12T03:09:10;99494.34;;;0.59;62.99
64683;BME280;51107;47.652;19.016;2023-03-12T03:11:39;99509.25;;;0.38;64.03
64683;BME280;51107;47.652;19.016;2023-03-12T03:14:08;99498.37;;;0.35;63.76
64683;BME280;51107;47.652;19.016;2023-03-12T03:16:37;99506.78;;;0.37;64.26
64683;BME280;51107;47.652;19.016;2023-03-12T03:19:06;99506.31;;;0.30;64.41
64683;BME280;51107;47.652;19.016;2023-03-12T03:21:34;99512.72;;;0.23;65.63
64683;BME280;51107;47.652;19.016;2023-03-12T03:24:03;99514.09;;;0.14;65.99
64683;BME280;51107;47.652;19.016;2023-03-12T03:26:32;99533.19;;;0.08;66.51
64683;BME280;51107;47.652;19.016;2023-03-12T03:29:00;99523.41;;;0.01;67.43
64683;BME280;51107;47.652;19.016;2023-03-12T03:31:28;99524.69;;;-0.07;67.29
64683;BME280;51107;47.652;19.016;2023-03-12T03:33:57;99544.94;;;-0.18;68.05
64683;BME280;51107;47.652;19.016;2023-03-12T03:36:25;99542.88;;;-0.42;69.51
64683;BME280;51107;47.652;19.016;2023-03-12T03:38:54;99535.63;;;-0.19;69.02
64683;BME280;51107;47.652;19.016;2023-03-12T03:41:23;99540.53;;;-0.30;69.22
64683;BME280;51107;47.652;19.016;2023-03-12T03:43:57;99543.16;;;-0.32;69.94
64683;BME280;51107;47.652;19.016;2023-03-12T03:46:26;99545.59;;;-0.14;69.17
64683;BME280;51107;47.652;19.016;2023-03-12T03:48:54;99532.69;;;-0.27;69.20
64683;BME280;51107;47.652;19.016;2023-03-12T03:51:23;99535.56;;;-0.33;70.40
64683;BME280;51107;47.652;19.016;2023-03-12T03:53:52;99544.03;;;-0.17;69.68
64683;BME280;51107;47.652;19.016;2023-03-12T03:56:20;99558.31;;;-0.13;69.52
64683;BME280;51107;47.652;19.016;2023-03-12T03:58:49;99558.19;;;-0.26;70.06
64683;BME280;51107;47.652;19.016;2023-03-12T04:01:18;99566.87;;;-0.28;70.15
64683;BME280;51107;47.652;19.016;2023-03-12T04:03:47;99560.19;;;-0.31;70.30
64683;BME280;51107;47.652;19.016;2023-03-12T04:06:15;99560.53;;;-0.37;70.45
64683;BME280;51107;47.652;19.016;2023-03-12T04:08:43;99575.84;;;-0.21;70.16
64683;BME280;51107;47.652;19.016;2023-03-12T04:11:14;99580.47;;;-0.28;70.26
64683;BME280;51107;47.652;19.016;2023-03-12T04:13:43;99567.59;;;-0.26;70.40
64683;BME280;51107;47.652;19.016;2023-03-12T04:16:13;99580.34;;;-0.41;71.12
64683;BME280;51107;47.652;19.016;2023-03-12T04:18:42;99583.22;;;-0.47;71.83
64683;BME280;51107;47.652;19.016;2023-03-12T04:21:12;99582.03;;;-0.56;72.16
64683;BME280;51107;47.652;19.016;2023-03-12T04:23:41;99613.13;;;-0.47;72.15
64683;BME280;51107;47.652;19.016;2023-03-12T04:26:09;99612.56;;;-0.53;72.56
64683;BME280;51107;47.652;19.016;2023-03-12T04:28:37;99605.13;;;-0.41;71.95
64683;BME280;51107;47.652;19.016;2023-03-12T04:31:07;99610.47;;;-0.46;71.98
64683;BME280;51107;47.652;19.016;2023-03-12T04:33:37;99617.56;;;-0.35;71.91
64683;BME280;51107;47.652;19.016;2023-03-12T04:36:07;99613.72;;;-0.42;72.23
64683;BME280;51107;47.652;19.016;2023-03-12T04:38:36;99611.25;;;-0.44;72.75
64683;BME280;51107;47.652;19.016;2023-03-12T04:41:07;99607.28;;;-0.49;73.24
64683;BME280;51107;47.652;19.016;2023-03-12T04:43:37;99615.59;;;-0.46;73.42
64683;BME280;51107;47.652;19.016;2023-03-12T04:46:05;99609.75;;;-0.64;74.22
64683;BME280;51107;47.652;19.016;2023-03-12T04:48:34;99613.16;;;-0.79;75.36
64683;BME280;51107;47.652;19.016;2023-03-12T04:51:03;99619.66;;;-0.74;75.36
64683;BME280;51107;47.652;19.016;2023-03-12T04:53:32;99618.00;;;-0.75;75.63
64683;BME280;51107;47.652;19.016;2023-03-12T04:56:01;99632.94;;;-0.83;76.08
64683;BME280;51107;47.652;19.016;2023-03-12T04:58:30;99625.00;;;-0.94;76.80
64683;BME280;51107;47.652;19.016;2023-03-12T05:00:58;99623.03;;;-0.89;76.89
64683;BME280;51107;47.652;19.016;2023-03-12T05:03:26;99635.56;;;-0.84;76.64
64683;BME280;51107;47.652;19.016;2023-03-12T05:05:57;99636.97;;;-0.79;76.62
64683;BME280;51107;47.652;19.016;2023-03-12T05:08:25;99650.34;;;-0.74;76.70
64683;BME280;51107;47.652;19.016;2023-03-12T05:10:54;99649.63;;;-0.76;77.03
64683;BME280;51107;47.652;19.016;2023-03-12T05:13:25;99657.13;;;-0.73;76.82
64683;BME280;51107;47.652;19.016;2023-03-12T05:15:54;99651.25;;;-0.75;76.95
64683;BME280;51107;47.652;19.016;2023-03-12T05:18:22;99660.94;;;-0.80;76.91
64683;BME280;51107;47.652;19.016;2023-03-12T05:21:18;99668.22;;;-0.90;77.20
64683;BME280;51107;47.652;19.016;2023-03-12T05:23:47;99651.91;;;-0.87;77.78
64683;BME280;51107;47.652;19.016;2023-03-12T05:26:28;99667.53;;;-0.76;77.40
64683;BME280;51107;47.652;19.016;2023-03-12T05:29:00;99657.94;;;-0.88;78.00
64683;BME280;51107;47.652;19.016;2023-03-12T05:31:29;99662.91;;;-0.85;78.35
64683;BME280;51107;47.652;19.016;2023-03-12T05:34:03;99673.28;;;-0.88;77.83
64683;BME280;51107;47.652;19.016;2023-03-12T05:36:32;99680.06;;;-0.71;77.71
64683;BME280;51107;47.652;19.016;2023-03-12T05:39:00;99674.13;;;-0.72;78.15
64683;BME280;51107;47.652;19.016;2023-03-12T05:41:30;99687.06;;;-0.75;78.19
64683;BME280;51107;47.652;19.016;2023-03-12T05:43:58;99690.56;;;-0.60;77.37
64683;BME280;51107;47.652;19.016;2023-03-12T05:46:27;99695.84;;;-0.47;76.95
64683;BME280;51107;47.652;19.016;2023-03-12T05:48:57;99688.50;;;-0.37;76.20
64683;BME280;51107;47.652;19.016;2023-03-12T05:51:26;99704.84;;;-0.24;76.00
64683;BME280;51107;47.652;19.016;2023-03-12T05:53:54;99708.75;;;-0.16;75.22
64683;BME280;51107;47.652;19.016;2023-03-12T05:56:22;99722.19;;;-0.13;75.19
64683;BME280;51107;47.652;19.016;2023-03-12T05:58:51;99721.84;;;0.09;74.42
64683;BME280;51107;47.652;19.016;2023-03-12T06:01:22;99732.59;;;0.00;74.32
64683;BME280;51107;47.652;19.016;2023-03-12T06:03:52;99732.56;;;0.16;74.06
64683;BME280;51107;47.652;19.016;2023-03-12T06:06:20;99751.41;;;0.15;73.16
64683;BME280;51107;47.652;19.016;2023-03-12T06:08:50;99746.69;;;0.23;72.66
64683;BME280;51107;47.652;19.016;2023-03-12T06:11:18;99757.81;;;0.38;71.83
64683;BME280;51107;47.652;19.016;2023-03-12T06:13:47;99753.28;;;0.27;72.49
64683;BME280;51107;47.652;19.016;2023-03-12T06:16:21;99759.75;;;0.35;72.79
64683;BME280;51107;47.652;19.016;2023-03-12T06:18:59;99764.59;;;0.55;72.05
64683;BME280;51107;47.652;19.016;2023-03-12T06:21:30;99760.16;;;0.43;72.62
64683;BME280;51107;47.652;19.016;2023-03-12T06:24:05;99788.69;;;0.67;71.03
64683;BME280;51107;47.652;19.016;2023-03-12T06:26:33;99796.69;;;0.77;70.45
64683;BME280;51107;47.652;19.016;2023-03-12T06:29:02;99785.13;;;0.70;70.41
64683;BME280;51107;47.652;19.016;2023-03-12T06:31:30;99784.03;;;0.74;69.63
64683;BME280;51107;47.652;19.016;2023-03-12T06:33:58;99798.94;;;0.97;68.97
64683;BME280;51107;47.652;19.016;2023-03-12T06:36:27;99810.25;;;0.79;69.69
64683;BME280;51107;47.652;19.016;2023-03-12T06:38:55;99803.47;;;0.78;70.01
64683;BME280;51107;47.652;19.016;2023-03-12T06:41:24;99801.56;;;0.81;69.96
64683;BME280;51107;47.652;19.016;2023-03-12T06:43:52;99800.41;;;1.01;68.56
64683;BME280;51107;47.652;19.016;2023-03-12T06:46:21;99802.06;;;1.02;69.42
64683;BME280;51107;47.652;19.016;2023-03-12T06:48:52;99796.03;;;1.04;68.81
64683;BME280;51107;47.652;19.016;2023-03-12T06:51:20;99813.13;;;1.03;68.17
64683;BME280;51107;47.652;19.016;2023-03-12T06:53:48;99800.06;;;1.22;68.42
64683;BME280;51107;47.652;19.016;2023-03-12T06:56:17;99810.63;;;1.17;68.69
64683;BME280;51107;47.652;19.016;2023-03-12T06:58:45;99818.87;;;1.23;67.96
64683;BME280;51107;47.652;19.016;2023-03-12T07:01:14;99818.34;;;1.01;68.31
64683;BME280;51107;47.652;19.016;2023-03-12T07:03:42;99812.72;;;1.11;68.61
64683;BME280;51107;47.652;19.016;2023-03-12T07:06:19;99825.37;;;1.28;68.18
64683;BME280;51107;47.652;19.016;2023-03-12T07:08:49;99815.84;;;1.59;67.40
64683;BME280;51107;47.652;19.016;2023-03-12T07:11:17;99831.16;;;1.61;66.70
64683;BME280;51107;47.652;19.016;2023-03-12T07:13:46;99827.78;;;1.60;67.24
64683;BME280;51107;47.652;19.016;2023-03-12T07:16:14;99818.78;;;1.82;65.62
64683;BME280;51107;47.652;19.016;2023-03-12T07:18:43;99836.47;;;1.72;66.18
64683;BME280;51107;47.652;19.016;2023-03-12T07:21:11;99837.41;;;2.00;65.33
64683;BME280;51107;47.652;19.016;2023-03-12T07:23:40;99838.03;;;1.89;65.81
64683;BME280;51107;47.652;19.016;2023-03-12T07:26:08;99845.06;;;2.14;64.00
64683;BME280;51107;47.652;19.016;2023-03-12T07:28:36;99840.87;;;1.99;64.11
64683;BME280;51107;47.652;19.016;2023-03-12T07:31:05;99846.28;;;2.09;63.53
64683;BME280;51107;47.652;19.016;2023-03-12T07:33:34;99826.91;;;2.45;63.15
64683;BME280;51107;47.652;19.016;2023-03-12T07:36:03;99845.19;;;2.40;62.41
64683;BME280;51107;47.652;19.016;2023-03-12T07:38:32;99836.91;;;2.49;63.13
64683;BME280;51107;47.652;19.016;2023-03-12T07:41:01;99832.69;;;2.88;61.39
64683;BME280;51107;47.652;19.016;2023-03-12T07:43:30;99840.63;;;2.98;59.80
64683;BME280;51107;47.652;19.016;2023-03-12T07:46:00;99845.81;;;3.50;60.03
64683;BME280;51107;47.652;19.016;2023-03-12T07:48:28;99838.28;;;3.85;57.69
64683;BME280;51107;47.652;19.016;2023-03-12T07:50:56;99835.00;;;4.20;56.99
64683;BME280;51107;47.652;19.016;2023-03-12T07:53:27;99841.78;;;4.34;55.62
64683;BME280;51107;47.652;19.016;2023-03-12T07:55:55;99839.34;;;4.68;54.89
64683;BME280;51107;47.652;19.016;2023-03-12T07:58:24;99840.00;;;5.30;52.95
64683;BME280;51107;47.652;19.016;2023-03-12T08:00:55;99840.59;;;5.56;54.52
64683;BME280;51107;47.652;19.016;2023-03-12T08:03:24;99842.50;;;5.66;51.20
64683;BME280;51107;47.652;19.016;2023-03-12T08:06:01;99843.88;;;6.26;52.50
64683;BME280;51107;47.652;19.016;2023-03-12T08:08:30;99846.69;;;6.35;47.92
64683;BME280;51107;47.652;19.016;2023-03-12T08:10:59;99846.25;;;6.62;48.41
64683;BME280;51107;47.652;19.016;2023-03-12T08:13:27;99859.94;;;6.85;48.16
64683;BME280;51107;47.652;19.016;2023-03-12T08:15:56;99859.38;;;6.49;48.58
64683;BME280;51107;47.652;19.016;2023-03-12T08:18:24;99850.94;;;7.22;47.06
64683;BME280;51107;47.652;19.016;2023-03-12T08:20:53;99846.47;;;7.55;45.38
64683;BME280;51107;47.652;19.016;2023-03-12T08:23:22;99851.41;;;7.98;44.88
64683;BME280;51107;47.652;19.016;2023-03-12T08:25:51;99859.03;;;8.41;44.59
64683;BME280;51107;47.652;19.016;2023-03-12T08:28:20;99861.28;;;7.74;43.62
64683;BME280;51107;47.652;19.016;2023-03-12T08:30:51;99861.25;;;8.65;41.90
64683;BME280;51107;47.652;19.016;2023-03-12T08:33:21;99873.19;;;8.07;43.89
64683;BME280;51107;47.652;19.016;2023-03-12T08:35:49;99870.19;;;8.22;43.96
64683;BME280;51107;47.652;19.016;2023-03-12T08:38:18;99866.03;;;8.40;42.22
64683;BME280;51107;47.652;19.016;2023-03-12T08:40:53;99875.38;;;9.68;42.23
64683;BME280;51107;47.652;19.016;2023-03-12T08:43:22;99877.31;;;9.57;40.47
64683;BME280;51107;47.652;19.016;2023-03-12T08:45:57;99873.97;;;10.30;40.19
64683;BME280;51107;47.652;19.016;2023-03-12T08:48:27;99873.34;;;9.52;37.68
64683;BME280;51107;47.652;19.016;2023-03-12T08:50:58;99870.72;;;10.00;37.61
64683;BME280;51107;47.652;19.016;2023-03-12T08:53:26;99874.78;;;10.94;34.33
64683;BME280;51107;47.652;19.016;2023-03-12T08:55:56;99867.19;;;11.01;34.44
64683;BME280;51107;47.652;19.016;2023-03-12T08:58:25;99872.13;;;10.22;35.00
64683;BME280;51107;47.652;19.016;2023-03-12T09:00:54;99868.88;;;10.10;35.60
64683;BME280;51107;47.652;19.016;2023-03-12T09:03:23;99867.06;;;10.48;33.67
64683;BME280;51107;47.652;19.016;2023-03-12T09:06:24;99873.59;;;9.97;36.94
64683;BME280;51107;47.652;19.016;2023-03-12T09:08:53;99870.44;;;11.47;32.99
64683;BME280;51107;47.652;19.016;2023-03-12T09:11:21;99873.53;;;10.62;33.03
64683;BME280;51107;47.652;19.016;2023-03-12T09:13:49;99874.84;;;11.20;32.30
64683;BME280;51107;47.652;19.016;2023-03-12T09:16:38;99869.84;;;11.27;34.16
64683;BME280;51107;47.652;19.016;2023-03-12T09:19:06;99867.88;;;10.85;33.35
64683;BME280;51107;47.652;19.016;2023-03-12T09:21:35;99868.69;;;10.49;35.43
64683;BME280;51107;47.652;19.016;2023-03-12T09:24:04;99861.66;;;11.04;34.22
64683;BME280;51107;47.652;19.016;2023-03-12T09:26:32;99873.94;;;11.56;33.19
64683;BME280;51107;47.652;19.016;2023-03-12T09:29:02;99862.06;;;12.47;31.08
64683;BME280;51107;47.652;19.016;2023-03-12T09:31:31;99867.22;;;12.22;30.07
64683;BME280;51107;47.652;19.016;2023-03-12T09:33:59;99859.56;;;11.86;30.08
64683;BME280;51107;47.652;19.016;2023-03-12T09:36:28;99857.47;;;12.57;28.98
64683;BME280;51107;47.652;19.016;2023-03-12T09:38:56;99866.31;;;11.36;30.24
64683;BME280;51107;47.652;19.016;2023-03-12T09:41:28;99856.84;;;11.62;31.60
64683;BME280;51107;47.652;19.016;2023-03-12T09:44:03;99856.41;;;10.42;33.02
64683;BME280;51107;47.652;19.016;2023-03-12T09:46:42;99859.41;;;12.31;32.05
64683;BME280;51107;47.652;19.016;2023-03-12T09:52:26;99858.97;;;12.01;32.63
64683;BME280;51107;47.652;19.016;2023-03-12T09:55:17;99844.91;;;12.61;30.12
64683;BME280;51107;47.652;19.016;2023-03-12T09:57:48;99848.69;;;13.08;30.34
64683;BME280;51107;47.652;19.016;2023-03-12T10:00:20;99837.72;;;12.47;29.96
64683;BME280;51107;47.652;19.016;2023-03-12T10:11:41;99830.34;;;12.42;30.01
64683;BME280;51107;47.652;19.016;2023-03-12T10:22:49;99855.81;;;12.23;30.50
64683;BME280;51107;47.652;19.016;2023-03-12T10:25:32;99851.41;;;11.89;30.70
64683;BME280;51107;47.652;19.016;2023-03-12T10:28:19;99852.44;;;11.97;33.66
64683;BME280;51107;47.652;19.016;2023-03-12T10:30:54;99855.44;;;12.10;30.90
64683;BME280;51107;47.652;19.016;2023-03-12T10:33:24;99860.66;;;10.97;31.02
64683;BME280;51107;47.652;19.016;2023-03-12T10:35:57;99848.97;;;11.27;31.77
64683;BME280;51107;47.652;19.016;2023-03-12T10:38:28;99857.66;;;11.97;31.57
64683;BME280;51107;47.652;19.016;2023-03-12T10:40:57;99854.91;;;12.06;32.48
64683;BME280;51107;47.652;19.016;2023-03-12T10:43:25;99858.34;;;11.38;32.88
64683;BME280;51107;47.652;19.016;2023-03-12T10:48:34;99861.28;;;11.69;32.75
64683;BME280;51107;47.652;19.016;2023-03-12T10:51:08;99861.84;;;11.89;27.89
64683;BME280;51107;47.652;19.016;2023-03-12T10:53:46;99860.28;;;12.89;26.53
64683;BME280;51107;47.652;19.016;2023-03-12T10:56:17;99859.97;;;12.59;25.85
64683;BME280;51107;47.652;19.016;2023-03-12T10:58:51;99861.75;;;12.83;25.09
64683;BME280;51107;47.652;19.016;2023-03-12T11:01:25;99860.94;;;12.74;24.64
64683;BME280;51107;47.652;19.016;2023-03-12T11:04:17;99870.44;;;12.08;25.78
64683;BME280;51107;47.652;19.016;2023-03-12T11:07:10;99867.78;;;12.43;26.88
64683;BME280;51107;47.652;19.016;2023-03-12T11:09:43;99864.16;;;12.52;25.03
64683;BME280;51107;47.652;19.016;2023-03-12T11:12:26;99872.31;;;12.32;24.61
64683;BME280;51107;47.652;19.016;2023-03-12T11:14:55;99869.41;;;12.01;25.21
64683;BME280;51107;47.652;19.016;2023-03-12T11:17:28;99865.38;;;11.19;28.03
64683;BME280;51107;47.652;19.016;2023-03-12T11:19:58;99870.13;;;11.77;27.00
64683;BME280;51107;47.652;19.016;2023-03-12T11:22:34;99863.63;;;11.81;26.68
64683;BME280;51107;47.652;19.016;2023-03-12T11:25:05;99861.69;;;12.34;27.84
64683;BME280;51107;47.652;19.016;2023-03-12T11:27:40;99861.56;;;12.60;28.18
64683;BME280;51107;47.652;19.016;2023-03-12T11:30:15;99862.41;;;13.27;24.29
64683;BME280;51107;47.652;19.016;2023-03-12T11:32:46;99866.25;;;11.28;28.74
64683;BME280;51107;47.652;19.016;2023-03-12T11:35:20;99856.87;;;11.70;28.20
64683;BME280;51107;47.652;19.016;2023-03-12T11:38:16;99862.13;;;10.45;27.77
64683;BME280;51107;47.652;19.016;2023-03-12T11:58:42;99864.19;;;9.86;28.60
64683;BME280;51107;47.652;19.016;2023-03-12T12:01:23;99856.34;;;9.11;27.68
64683;BME280;51107;47.652;19.016;2023-03-12T12:18:11;99857.53;;;9.36;28.38
64683;BME280;51107;47.652;19.016;2023-03-12T12:23:41;99850.34;;;8.91;28.34
64683;BME280;51107;47.652;19.016;2023-03-12T12:26:13;99849.22;;;8.44;29.15
64683;BME280;51107;47.652;19.016;2023-03-12T12:29:22;99844.28;;;8.41;28.64
64683;BME280;51107;47.652;19.016;2023-03-12T12:31:56;99855.53;;;8.71;30.08
64683;BME280;51107;47.652;19.016;2023-03-12T12:37:29;99843.84;;;8.26;28.54
64683;BME280;51107;47.652;19.016;2023-03-12T12:40:20;99835.72;;;8.60;29.06
64683;BME280;51107;47.652;19.016;2023-03-12T12:43:03;99843.38;;;8.62;28.41
64683;BME280;51107;47.652;19.016;2023-03-12T12:45:37;99841.84;;;8.59;28.88
64683;BME280;51107;47.652;19.016;2023-03-12T12:48:21;99842.22;;;8.25;27.59
64683;BME280;51107;47.652;19.016;2023-03-12T12:50:53;99851.84;;;8.64;28.21
64683;BME280;51107;47.652;19.016;2023-03-12T12:53:30;99845.81;;;8.63;30.52
64683;BME280;51107;47.652;19.016;2023-03-12T12:57:08;99844.41;;;8.40;28.97
64683;BME280;51107;47.652;19.016;2023-03-12T13:02:00;99850.88;;;8.65;28.52
64683;BME280;51107;47.652;19.016;2023-03-12T13:04:33;99840.28;;;8.27;28.16
64683;BME280;51107;47.652;19.016;2023-03-12T13:07:03;99841.22;;;8.16;28.78
64683;BME280;51107;47.652;19.016;2023-03-12T13:09:57;99842.84;;;8.48;29.01
64683;BME280;51107;47.652;19.016;2023-03-12T13:12:30;99847.34;;;8.66;27.26
64683;BME280;51107;47.652;19.016;2023-03-12T13:18:25;99850.81;;;8.36;25.66
64683;BME280;51107;47.652;19.016;2023-03-12T13:24:22;99844.00;;;8.34;26.93
64683;BME280;51107;47.652;19.016;2023-03-12T13:27:03;99852.28;;;8.09;27.78
64683;BME280;51107;47.652;19.016;2023-03-12T13:29:38;99842.25;;;7.94;28.49
64683;BME280;51107;47.652;19.016;2023-03-12T13:40:36;99853.75;;;8.02;28.74
64683;BME280;51107;47.652;19.016;2023-03-12T13:45:58;99858.88;;;8.23;30.40
64683;BME280;51107;47.652;19.016;2023-03-12T13:48:28;99862.38;;;8.02;29.11
64683;BME280;51107;47.652;19.016;2023-03-12T13:51:03;99861.59;;;8.11;27.96
64683;BME280;51107;47.652;19.016;2023-03-12T13:53:38;99855.44;;;8.22;27.61
64683;BME280;51107;47.652;19.016;2023-03-12T13:56:13;99852.72;;;8.24;27.66
64683;BME280;51107;47.652;19.016;2023-03-12T13:59:05;99861.81;;;8.08;27.23
64683;BME280;51107;47.652;19.016;2023-03-12T14:01:39;99846.97;;;8.20;28.07
64683;BME280;51107;47.652;19.016;2023-03-12T14:04:19;99860.41;;;8.35;27.16
64683;BME280;51107;47.652;19.016;2023-03-12T14:07:16;99856.28;;;8.32;26.85
64683;BME280;51107;47.652;19.016;2023-03-12T14:10:15;99856.84;;;8.36;26.03
64683;BME280;51107;47.652;19.016;2023-03-12T14:18:25;99871.81;;;8.13;26.88
64683;BME280;51107;47.652;19.016;2023-03-12T14:20:57;99870.69;;;8.06;26.98
64683;BME280;51107;47.652;19.016;2023-03-12T14:23:36;99870.13;;;7.92;26.96
64683;BME280;51107;47.652;19.016;2023-03-12T14:26:06;99868.19;;;7.94;26.08
64683;BME280;51107;47.652;19.016;2023-03-12T14:28:40;99873.00;;;7.99;26.67
64683;BME280;51107;47.652;19.016;2023-03-12T14:31:15;99872.47;;;8.05;26.60
64683;BME280;51107;47.652;19.016;2023-03-12T14:33:53;99875.53;;;8.20;26.19
64683;BME280;51107;47.652;19.016;2023-03-12T14:36:26;99874.28;;;8.14;25.33
64683;BME280;51107;47.652;19.016;2023-03-12T14:39:09;99875.12;;;7.84;25.80
64683;BME280;51107;47.652;19.016;2023-03-12T14:41:44;99872.56;;;7.94;26.56
64683;BME280;51107;47.652;19.016;2023-03-12T14:44:24;99871.37;;;7.98;26.44
64683;BME280;51107;47.652;19.016;2023-03-12T14:47:07;99860.22;;;7.76;27.18
64683;BME280;51107;47.652;19.016;2023-03-12T14:49:44;99874.13;;;7.75;26.67
64683;BME280;51107;47.652;19.016;2023-03-12T14:52:20;99869.31;;;7.40;26.93
64683;BME280;51107;47.652;19.016;2023-03-12T14:54:57;99865.81;;;7.51;27.12
64683;BME280;51107;47.652;19.016;2023-03-12T14:57:26;99868.12;;;7.75;27.83
64683;BME280;51107;47.652;19.016;2023-03-12T15:00:00;99874.75;;;7.58;27.95